Airfield :
LOGIN :

Register | Disclaimer

   EN    FR    IT 

 










Legend :    VFR   Marginal VFR   IFR   Intensive IFR   Very Intensive IFR
Visi :
Ceiling :
>= 8 km
>= 3000ft
5 to 8 km
1000 to 3000 ft
1500m to 5 km
500 to 1000 ft
800 to 1500m
200 to 500 ft
< 800m
< 200 ft
Symbols :   Thunderstorms  Fog  Heavy snow  Heavy precipitations  Wind > 20 kt
SIGMETs :     Misc.  Thunderstorms  Icing  Turbulence  Mountain Waves  Volcanic Ashes







- Airport Elevation : 978 ft
- IATA code : LNZ


LOWL - Linz

CURRENT METAR :
  • 181750Z AUTO 06003KT 9999 NSC 04/M01 Q1020 NOSIG

EXPIRED METARs :
  • 181720Z AUTO 10003KT 9999 NSC 07/M02 Q1019 NOSIG
  • 181650Z 13002KT CAVOK 08/M00 Q1019 NOSIG
  • 181620Z VRB01KT CAVOK 09/M01 Q1019 NOSIG
  • 181550Z VRB01KT CAVOK 11/M00 Q1019 NOSIG
  • 181520Z VRB01KT CAVOK 11/M00 Q1020 NOSIG

TAF TAF LOWL
Valid from the 18 at 18:00 until the 19 at 18:00 UTC


181715Z 1818/1918 VRB02KT CAVOK TX11/1914Z TNM04/1906Z
PROB40 1903/1910 4000 BR FEW001
No reported NOTAMs for that airfield.



MET'MAP, your aeronautical weather chart ! - Copyright ORBIFLY December 2007 - Disclaimer

ORBIFLY MET'MAP TEAM :

Programming & Development : Alexandra Zaïnal
Concept & Development : Baudouin d'Aumeries
Co-Development & Prog : Marc-Olivier Méhu
Technical & hardware support : Manuel Goepfert

Contact : metmap@orbifly.com




SOURCES & CREDITS :

   NOAA